THY1DU LTFM-LIRF
Flight info
| Callsign | THY1DU |
|---|---|
| Flight time | 2h 11m |
| Altitude | 36000 |
| Route | VADEN DCT BAKLO N618 GOL DCT DOLAP DCT GINAM DCT BAJUN DCT YUYUH DCT BUNEX DCT NERRA DCT XOLTA/N0467F370 DCT ESODU/N0457F330 DCT ASPIR DCT MOPUV |
| Aircraft | B77W/H-SDE1E2E3FGHIJ2J3J4J5M1RWXYZ/LB1D1 |
Departure
| Time | 2026-02-19 10:21 |
|---|---|
| Airport | İstanbul Airport (LTFM) |
Arrival
| Time | 2026-02-19 12:32 |
|---|---|
| Airport | Rome–Fiumicino Leonardo da Vinci International Airport (LIRF) |
| Time | Latitude | Longitude | Altitude | Speed | Heading |
|---|---|---|---|---|---|
| 2026-02-19 10:20 | 41.24007 | 28.94487 | 9522 ft | 268 kts | 354° |
| 2026-02-19 10:21 | 41.25885 | 28.94432 | 10300 ft | 273 kts | 354° |
| 2026-02-19 10:21 | 41.29863 | 28.93716 | 10790 ft | 308 kts | 330° |
| 2026-02-19 10:21 | 41.31683 | 28.92049 | 11058 ft | 327 kts | 316° |
| 2026-02-19 10:22 | 41.33141 | 28.89681 | 11740 ft | 336 kts | 302° |
| 2026-02-19 10:22 | 41.34369 | 28.87012 | 12651 ft | 341 kts | 300° |
| 2026-02-19 10:22 | 41.35572 | 28.84265 | 13750 ft | 343 kts | 300° |
| 2026-02-19 10:22 | 41.36770 | 28.81502 | 14762 ft | 346 kts | 299° |
| 2026-02-19 10:23 | 41.37982 | 28.78717 | 15694 ft | 349 kts | 300° |
| 2026-02-19 10:23 | 41.39213 | 28.75908 | 16629 ft | 353 kts | 300° |
| 2026-02-19 10:23 | 41.40464 | 28.73074 | 17559 ft | 357 kts | 300° |
| 2026-02-19 10:23 | 41.41734 | 28.70211 | 18481 ft | 361 kts | 300° |
| 2026-02-19 10:24 | 41.43025 | 28.67309 | 19279 ft | 365 kts | 300° |
| 2026-02-19 10:24 | 41.45635 | 28.61452 | 20934 ft | 370 kts | 300° |
| 2026-02-19 10:24 | 41.46938 | 28.58527 | 21711 ft | 373 kts | 300° |
| 2026-02-19 10:25 | 41.48273 | 28.55530 | 22501 ft | 377 kts | 300° |
| 2026-02-19 10:25 | 41.49615 | 28.52514 | 23302 ft | 380 kts | 300° |
| 2026-02-19 10:25 | 41.50969 | 28.49471 | 24024 ft | 383 kts | 300° |
| 2026-02-19 10:25 | 41.52329 | 28.46409 | 24661 ft | 385 kts | 300° |
| 2026-02-19 10:26 | 41.53701 | 28.43318 | 25306 ft | 388 kts | 300° |
| 2026-02-19 10:26 | 41.55077 | 28.40214 | 25936 ft | 390 kts | 300° |
| 2026-02-19 10:26 | 41.56010 | 28.38107 | 26349 ft | 391 kts | 300° |
| 2026-02-19 10:26 | 41.57382 | 28.35007 | 26929 ft | 394 kts | 300° |
| 2026-02-19 10:27 | 41.58781 | 28.31844 | 27506 ft | 397 kts | 300° |
| 2026-02-19 10:27 | 41.60187 | 28.28658 | 28064 ft | 399 kts | 300° |
| 2026-02-19 10:27 | 41.61603 | 28.25450 | 28616 ft | 402 kts | 300° |
| 2026-02-19 10:27 | 41.63027 | 28.22218 | 29133 ft | 405 kts | 300° |
| 2026-02-19 10:28 | 41.64462 | 28.18958 | 29620 ft | 407 kts | 300° |
| 2026-02-19 10:28 | 41.67352 | 28.12381 | 30483 ft | 412 kts | 300° |
| 2026-02-19 10:28 | 41.68805 | 28.09070 | 30864 ft | 413 kts | 300° |
| 2026-02-19 10:29 | 41.70260 | 28.05750 | 31299 ft | 413 kts | 300° |
| 2026-02-19 10:29 | 41.71704 | 28.02451 | 31852 ft | 409 kts | 300° |
| 2026-02-19 10:29 | 41.73099 | 27.99262 | 32455 ft | 404 kts | 300° |
| 2026-02-19 10:29 | 41.74514 | 27.96021 | 32988 ft | 402 kts | 300° |
| 2026-02-19 10:30 | 41.75922 | 27.92796 | 33451 ft | 400 kts | 300° |
| 2026-02-19 10:30 | 41.77322 | 27.89583 | 33930 ft | 398 kts | 301° |
| 2026-02-19 10:30 | 41.78714 | 27.86387 | 34370 ft | 396 kts | 300° |
| 2026-02-19 10:30 | 41.80098 | 27.83202 | 34650 ft | 397 kts | 300° |
| 2026-02-19 10:31 | 41.81473 | 27.80038 | 34864 ft | 399 kts | 300° |
| 2026-02-19 10:31 | 41.82870 | 27.76819 | 35115 ft | 400 kts | 300° |
| 2026-02-19 10:31 | 41.84269 | 27.73593 | 35398 ft | 400 kts | 300° |
| 2026-02-19 10:31 | 41.85668 | 27.70364 | 35686 ft | 400 kts | 300° |
| 2026-02-19 10:32 | 41.87064 | 27.67137 | 35947 ft | 401 kts | 300° |
| 2026-02-19 10:32 | 41.89883 | 27.60608 | 36123 ft | 406 kts | 299° |
| 2026-02-19 10:32 | 41.91298 | 27.57327 | 36169 ft | 405 kts | 299° |
| 2026-02-19 10:33 | 41.94086 | 27.50850 | 36164 ft | 400 kts | 299° |
| 2026-02-19 10:33 | 41.96860 | 27.44391 | 36169 ft | 399 kts | 299° |
| 2026-02-19 10:34 | 41.99635 | 27.37916 | 36173 ft | 400 kts | 299° |
| 2026-02-19 10:34 | 42.02407 | 27.31435 | 36165 ft | 400 kts | 299° |
| 2026-02-19 10:35 | 42.05185 | 27.24938 | 36174 ft | 400 kts | 300° |
| 2026-02-19 10:35 | 42.08391 | 27.18860 | 36154 ft | 402 kts | 308° |
| 2026-02-19 10:36 | 42.14010 | 27.10430 | 36166 ft | 403 kts | 309° |
| 2026-02-19 10:37 | 42.17770 | 27.04797 | 36168 ft | 404 kts | 309° |
| 2026-02-19 10:37 | 42.21469 | 26.99226 | 36164 ft | 404 kts | 309° |
| 2026-02-19 10:38 | 42.25213 | 26.93565 | 36149 ft | 404 kts | 309° |
| 2026-02-19 10:38 | 42.28954 | 26.87897 | 36152 ft | 404 kts | 309° |
| 2026-02-19 10:39 | 42.32689 | 26.82227 | 36167 ft | 404 kts | 309° |
| 2026-02-19 10:39 | 42.36418 | 26.76555 | 36156 ft | 403 kts | 309° |
| 2026-02-19 10:40 | 42.40142 | 26.70881 | 36147 ft | 403 kts | 309° |
| 2026-02-19 10:40 | 42.45695 | 26.62397 | 36149 ft | 402 kts | 309° |
| 2026-02-19 10:41 | 42.49405 | 26.56716 | 36148 ft | 402 kts | 309° |
| 2026-02-19 10:41 | 42.52849 | 26.50771 | 36147 ft | 399 kts | 300° |
| 2026-02-19 10:42 | 42.55513 | 26.44173 | 36156 ft | 399 kts | 294° |
| 2026-02-19 10:42 | 42.57447 | 26.37117 | 36164 ft | 399 kts | 289° |
| 2026-02-19 10:43 | 42.59225 | 26.29962 | 36155 ft | 400 kts | 289° |
| 2026-02-19 10:43 | 42.60998 | 26.22831 | 36130 ft | 401 kts | 289° |
| 2026-02-19 10:44 | 42.63699 | 26.12058 | 36129 ft | 402 kts | 289° |
| 2026-02-19 10:45 | 42.65503 | 26.04863 | 36120 ft | 402 kts | 289° |
| 2026-02-19 10:45 | 42.67278 | 25.97767 | 36118 ft | 403 kts | 289° |
| 2026-02-19 10:46 | 42.69074 | 25.90563 | 36120 ft | 402 kts | 289° |
| 2026-02-19 10:46 | 42.70854 | 25.83403 | 36112 ft | 402 kts | 289° |
| 2026-02-19 10:47 | 42.72637 | 25.76202 | 36108 ft | 402 kts | 289° |
| 2026-02-19 10:47 | 42.74417 | 25.68998 | 36105 ft | 402 kts | 289° |
| 2026-02-19 10:48 | 42.76193 | 25.61787 | 36105 ft | 401 kts | 289° |
| 2026-02-19 10:48 | 42.78845 | 25.50978 | 36093 ft | 401 kts | 288° |
| 2026-02-19 10:49 | 42.80606 | 25.43766 | 36105 ft | 401 kts | 288° |
| 2026-02-19 10:49 | 42.82363 | 25.36549 | 36108 ft | 402 kts | 288° |
| 2026-02-19 10:50 | 42.84120 | 25.29311 | 36088 ft | 403 kts | 288° |
| 2026-02-19 10:50 | 42.85864 | 25.22108 | 36099 ft | 403 kts | 288° |
| 2026-02-19 10:51 | 42.87616 | 25.14844 | 36091 ft | 403 kts | 288° |
| 2026-02-19 10:51 | 42.89366 | 25.07568 | 36094 ft | 404 kts | 288° |
| 2026-02-19 10:52 | 42.91958 | 24.96745 | 36076 ft | 404 kts | 288° |
| 2026-02-19 10:53 | 42.93697 | 24.89458 | 36065 ft | 403 kts | 288° |
| 2026-02-19 10:53 | 42.95414 | 24.82235 | 36065 ft | 403 kts | 288° |
| 2026-02-19 10:54 | 42.97138 | 24.74963 | 36056 ft | 402 kts | 288° |
| 2026-02-19 10:54 | 42.98858 | 24.67683 | 36066 ft | 402 kts | 288° |
| 2026-02-19 10:55 | 43.00568 | 24.60421 | 36051 ft | 402 kts | 288° |
| 2026-02-19 10:55 | 43.02278 | 24.53138 | 36039 ft | 402 kts | 287° |
| 2026-02-19 10:56 | 43.03980 | 24.45860 | 36045 ft | 402 kts | 287° |
| 2026-02-19 10:56 | 43.06518 | 24.34970 | 36038 ft | 402 kts | 287° |
| 2026-02-19 10:57 | 43.08215 | 24.27662 | 36038 ft | 402 kts | 287° |
| 2026-02-19 10:57 | 43.09892 | 24.20353 | 36042 ft | 402 kts | 286° |
| 2026-02-19 10:58 | 43.11371 | 24.13008 | 36041 ft | 402 kts | 285° |
| 2026-02-19 10:58 | 43.12799 | 24.05604 | 36038 ft | 402 kts | 285° |
| 2026-02-19 10:59 | 43.14220 | 23.98299 | 36030 ft | 402 kts | 285° |
| 2026-02-19 10:59 | 43.15670 | 23.90895 | 36028 ft | 402 kts | 285° |
| 2026-02-19 11:00 | 43.17840 | 23.79793 | 36030 ft | 402 kts | 285° |
| 2026-02-19 11:01 | 43.19279 | 23.72403 | 36028 ft | 401 kts | 285° |
| 2026-02-19 11:01 | 43.20704 | 23.65056 | 36026 ft | 401 kts | 285° |
| 2026-02-19 11:02 | 43.22132 | 23.57665 | 36024 ft | 401 kts | 284° |
| 2026-02-19 11:02 | 43.23555 | 23.50270 | 36024 ft | 401 kts | 284° |
| 2026-02-19 11:03 | 43.24975 | 23.42863 | 36028 ft | 401 kts | 284° |
| 2026-02-19 11:03 | 43.26390 | 23.35453 | 36027 ft | 402 kts | 284° |
| 2026-02-19 11:04 | 43.27801 | 23.28037 | 36036 ft | 401 kts | 284° |
| 2026-02-19 11:04 | 43.29896 | 23.16975 | 36032 ft | 400 kts | 284° |
| 2026-02-19 11:05 | 43.31289 | 23.09576 | 36026 ft | 399 kts | 284° |
| 2026-02-19 11:05 | 43.32674 | 23.02197 | 36032 ft | 398 kts | 284° |
| 2026-02-19 11:06 | 43.34035 | 22.94921 | 36029 ft | 398 kts | 283° |
| 2026-02-19 11:06 | 43.35411 | 22.87539 | 36032 ft | 399 kts | 283° |
| 2026-02-19 11:07 | 43.36674 | 22.80108 | 36026 ft | 399 kts | 278° |
| 2026-02-19 11:07 | 43.37159 | 22.72564 | 36038 ft | 400 kts | 272° |
| 2026-02-19 11:08 | 43.36788 | 22.61126 | 36018 ft | 399 kts | 268° |
| 2026-02-19 11:09 | 43.36437 | 22.53492 | 36039 ft | 401 kts | 268° |
| 2026-02-19 11:09 | 43.36096 | 22.45827 | 36026 ft | 402 kts | 268° |
| 2026-02-19 11:10 | 43.35757 | 22.38155 | 36033 ft | 402 kts | 268° |
| 2026-02-19 11:10 | 43.35418 | 22.30492 | 36024 ft | 401 kts | 268° |
| 2026-02-19 11:11 | 43.35077 | 22.22890 | 36019 ft | 401 kts | 268° |
| 2026-02-19 11:11 | 43.34729 | 22.15236 | 36023 ft | 402 kts | 268° |
| 2026-02-19 11:12 | 43.34374 | 22.07569 | 36026 ft | 402 kts | 268° |
| 2026-02-19 11:12 | 43.33839 | 21.96209 | 36028 ft | 402 kts | 268° |
| 2026-02-19 11:13 | 43.33471 | 21.88537 | 36018 ft | 402 kts | 268° |
| 2026-02-19 11:13 | 43.33099 | 21.80885 | 36026 ft | 401 kts | 268° |
| 2026-02-19 11:14 | 43.32722 | 21.73230 | 36024 ft | 401 kts | 268° |
| 2026-02-19 11:14 | 43.32340 | 21.65594 | 36018 ft | 400 kts | 267° |
| 2026-02-19 11:15 | 43.32020 | 21.59248 | 36015 ft | 400 kts | 267° |
| 2026-02-19 11:15 | 43.31565 | 21.50374 | 35989 ft | 400 kts | 267° |
| 2026-02-19 11:16 | 43.31037 | 21.40198 | 35998 ft | 401 kts | 267° |
| 2026-02-19 11:17 | 43.30729 | 21.32552 | 35992 ft | 400 kts | 269° |
| 2026-02-19 11:17 | 43.30562 | 21.24913 | 35997 ft | 400 kts | 269° |
| 2026-02-19 11:18 | 43.30303 | 21.17268 | 35976 ft | 400 kts | 268° |
| 2026-02-19 11:18 | 43.30027 | 21.09643 | 35987 ft | 400 kts | 268° |
| 2026-02-19 11:19 | 43.29752 | 21.02048 | 35985 ft | 401 kts | 268° |
| 2026-02-19 11:19 | 43.29480 | 20.94500 | 35997 ft | 401 kts | 268° |
| 2026-02-19 11:20 | 43.29200 | 20.86861 | 35980 ft | 400 kts | 268° |
| 2026-02-19 11:20 | 43.28774 | 20.75450 | 35992 ft | 399 kts | 268° |
| 2026-02-19 11:21 | 43.28484 | 20.67885 | 35981 ft | 399 kts | 268° |
| 2026-02-19 11:21 | 43.28189 | 20.60278 | 35987 ft | 399 kts | 268° |
| 2026-02-19 11:22 | 43.27888 | 20.52661 | 35980 ft | 399 kts | 268° |
| 2026-02-19 11:22 | 43.27583 | 20.45068 | 35998 ft | 398 kts | 268° |
| 2026-02-19 11:23 | 43.27272 | 20.37490 | 35977 ft | 397 kts | 267° |
| 2026-02-19 11:23 | 43.26958 | 20.29920 | 35992 ft | 398 kts | 267° |
| 2026-02-19 11:24 | 43.26478 | 20.18598 | 36004 ft | 398 kts | 267° |
| 2026-02-19 11:25 | 43.26152 | 20.11022 | 35987 ft | 398 kts | 267° |
| 2026-02-19 11:25 | 43.25820 | 20.03455 | 35972 ft | 397 kts | 267° |
| 2026-02-19 11:26 | 43.25487 | 19.95982 | 35971 ft | 397 kts | 267° |
| 2026-02-19 11:26 | 43.25146 | 19.88431 | 35980 ft | 396 kts | 267° |
| 2026-02-19 11:27 | 43.24800 | 19.80887 | 35965 ft | 396 kts | 266° |
| 2026-02-19 11:27 | 43.24453 | 19.73382 | 35966 ft | 397 kts | 266° |
| 2026-02-19 11:28 | 43.24086 | 19.65834 | 35955 ft | 397 kts | 265° |
| 2026-02-19 11:28 | 43.22560 | 19.54691 | 35972 ft | 397 kts | 259° |
| 2026-02-19 11:29 | 43.21364 | 19.47297 | 35973 ft | 397 kts | 259° |
| 2026-02-19 11:29 | 43.20174 | 19.39897 | 35951 ft | 398 kts | 259° |
| 2026-02-19 11:30 | 43.18978 | 19.32477 | 35967 ft | 399 kts | 259° |
| 2026-02-19 11:30 | 43.17800 | 19.25086 | 35988 ft | 401 kts | 259° |
| 2026-02-19 11:31 | 43.16663 | 19.17602 | 35971 ft | 402 kts | 259° |
| 2026-02-19 11:31 | 43.15525 | 19.10095 | 35984 ft | 402 kts | 259° |
| 2026-02-19 11:32 | 43.13819 | 18.98969 | 35999 ft | 401 kts | 259° |
| 2026-02-19 11:33 | 43.12663 | 18.91491 | 35990 ft | 401 kts | 259° |
| 2026-02-19 11:33 | 43.11507 | 18.84057 | 35995 ft | 402 kts | 259° |
| 2026-02-19 11:34 | 43.10342 | 18.76592 | 36002 ft | 400 kts | 259° |
| 2026-02-19 11:34 | 43.09173 | 18.69144 | 35969 ft | 400 kts | 259° |
| 2026-02-19 11:35 | 43.08001 | 18.61701 | 35983 ft | 401 kts | 259° |
| 2026-02-19 11:35 | 43.06822 | 18.54249 | 35977 ft | 400 kts | 259° |
| 2026-02-19 11:36 | 43.05647 | 18.46857 | 35982 ft | 400 kts | 259° |
| 2026-02-19 11:36 | 43.03867 | 18.35710 | 35987 ft | 399 kts | 258° |
| 2026-02-19 11:37 | 43.02675 | 18.28293 | 35971 ft | 399 kts | 258° |
| 2026-02-19 11:37 | 43.01487 | 18.20932 | 35988 ft | 398 kts | 258° |
| 2026-02-19 11:38 | 43.00290 | 18.13554 | 35970 ft | 398 kts | 258° |
| 2026-02-19 11:38 | 42.99087 | 18.06164 | 35966 ft | 398 kts | 258° |
| 2026-02-19 11:39 | 42.97898 | 17.98888 | 35953 ft | 397 kts | 258° |
| 2026-02-19 11:39 | 42.96695 | 17.91561 | 35969 ft | 397 kts | 258° |
| 2026-02-19 11:40 | 42.94872 | 17.80517 | 35963 ft | 397 kts | 258° |
| 2026-02-19 11:41 | 42.93650 | 17.73149 | 35971 ft | 398 kts | 257° |
| 2026-02-19 11:41 | 42.92424 | 17.65789 | 35939 ft | 397 kts | 257° |
| 2026-02-19 11:42 | 42.91196 | 17.58448 | 35938 ft | 396 kts | 257° |
| 2026-02-19 11:42 | 42.90136 | 17.51081 | 35944 ft | 395 kts | 261° |
| 2026-02-19 11:43 | 42.89372 | 17.43719 | 35953 ft | 394 kts | 261° |
| 2026-02-19 11:43 | 42.88607 | 17.36315 | 35920 ft | 394 kts | 261° |
| 2026-02-19 11:44 | 42.87830 | 17.28917 | 35928 ft | 394 kts | 261° |
| 2026-02-19 11:44 | 42.86644 | 17.17781 | 35923 ft | 395 kts | 261° |
| 2026-02-19 11:45 | 42.85851 | 17.10398 | 35917 ft | 396 kts | 261° |
| 2026-02-19 11:45 | 42.85048 | 17.02975 | 35926 ft | 396 kts | 260° |
| 2026-02-19 11:46 | 42.84249 | 16.95633 | 35907 ft | 396 kts | 260° |
| 2026-02-19 11:46 | 42.83436 | 16.88204 | 35894 ft | 396 kts | 260° |
| 2026-02-19 11:47 | 42.82620 | 16.80795 | 35892 ft | 395 kts | 260° |
| 2026-02-19 11:47 | 42.81805 | 16.73441 | 35884 ft | 395 kts | 260° |
| 2026-02-19 11:48 | 42.80567 | 16.62347 | 35854 ft | 395 kts | 259° |
| 2026-02-19 11:49 | 42.79735 | 16.54961 | 35871 ft | 394 kts | 259° |
| 2026-02-19 11:49 | 42.78900 | 16.47579 | 35859 ft | 394 kts | 259° |
| 2026-02-19 11:50 | 42.78061 | 16.40206 | 35857 ft | 394 kts | 259° |
| 2026-02-19 11:50 | 42.77216 | 16.32832 | 35867 ft | 394 kts | 259° |
| 2026-02-19 11:51 | 42.76367 | 16.25456 | 35847 ft | 394 kts | 259° |
| 2026-02-19 11:51 | 42.75520 | 16.18145 | 35832 ft | 393 kts | 259° |
| 2026-02-19 11:52 | 42.74664 | 16.10798 | 35832 ft | 393 kts | 259° |
| 2026-02-19 11:52 | 42.73380 | 15.99857 | 35819 ft | 392 kts | 259° |
| 2026-02-19 11:53 | 42.72517 | 15.92552 | 35831 ft | 392 kts | 258° |
| 2026-02-19 11:53 | 42.71652 | 15.85272 | 35785 ft | 392 kts | 258° |
| 2026-02-19 11:54 | 42.70780 | 15.77968 | 35790 ft | 391 kts | 258° |
| 2026-02-19 11:55 | 42.69068 | 15.67147 | 35798 ft | 390 kts | 255° |
| 2026-02-19 11:55 | 42.67769 | 15.59966 | 35793 ft | 392 kts | 254° |
| 2026-02-19 11:56 | 42.66466 | 15.52754 | 35786 ft | 393 kts | 254° |
| 2026-02-19 11:56 | 42.64519 | 15.41950 | 35770 ft | 395 kts | 254° |
| 2026-02-19 11:57 | 42.63207 | 15.34697 | 35761 ft | 395 kts | 254° |
| 2026-02-19 11:57 | 42.61891 | 15.27447 | 35755 ft | 395 kts | 254° |
| 2026-02-19 11:58 | 42.60570 | 15.20193 | 35725 ft | 396 kts | 254° |
| 2026-02-19 11:58 | 42.59242 | 15.12937 | 35743 ft | 396 kts | 254° |
| 2026-02-19 11:59 | 42.57915 | 15.05713 | 35738 ft | 397 kts | 254° |
| 2026-02-19 11:59 | 42.56594 | 14.98542 | 35738 ft | 398 kts | 254° |
| 2026-02-19 12:00 | 42.54569 | 14.87608 | 35736 ft | 399 kts | 253° |
| 2026-02-19 12:01 | 42.53208 | 14.80301 | 35735 ft | 400 kts | 253° |
| 2026-02-19 12:01 | 42.51847 | 14.73015 | 35734 ft | 400 kts | 253° |
| 2026-02-19 12:02 | 42.50475 | 14.65696 | 35731 ft | 401 kts | 253° |
| 2026-02-19 12:02 | 42.49095 | 14.58366 | 35691 ft | 401 kts | 253° |
| 2026-02-19 12:03 | 42.47713 | 14.51051 | 35699 ft | 400 kts | 253° |
| 2026-02-19 12:03 | 42.46341 | 14.43812 | 35708 ft | 399 kts | 253° |
| 2026-02-19 12:04 | 42.44943 | 14.36668 | 35445 ft | 386 kts | 250° |
| 2026-02-19 12:04 | 42.42938 | 14.30018 | 34480 ft | 378 kts | 244° |
| 2026-02-19 12:04 | 42.41703 | 14.26901 | 33966 ft | 374 kts | 241° |
| 2026-02-19 12:05 | 42.40407 | 14.23852 | 33404 ft | 372 kts | 241° |
| 2026-02-19 12:05 | 42.39111 | 14.20838 | 32854 ft | 368 kts | 240° |
| 2026-02-19 12:05 | 42.37827 | 14.17853 | 32297 ft | 366 kts | 240° |
| 2026-02-19 12:05 | 42.36981 | 14.15883 | 31949 ft | 364 kts | 240° |
| 2026-02-19 12:06 | 42.35718 | 14.12938 | 31411 ft | 361 kts | 240° |
| 2026-02-19 12:06 | 42.34464 | 14.10012 | 30857 ft | 358 kts | 240° |
| 2026-02-19 12:06 | 42.33222 | 14.07109 | 30364 ft | 355 kts | 240° |
| 2026-02-19 12:06 | 42.31989 | 14.04229 | 29850 ft | 353 kts | 240° |
| 2026-02-19 12:07 | 42.30761 | 14.01361 | 29285 ft | 352 kts | 240° |
| 2026-02-19 12:07 | 42.29567 | 13.98577 | 28736 ft | 350 kts | 240° |
| 2026-02-19 12:07 | 42.28353 | 13.95746 | 28224 ft | 347 kts | 240° |
| 2026-02-19 12:07 | 42.27146 | 13.92937 | 27687 ft | 345 kts | 240° |
| 2026-02-19 12:08 | 42.25947 | 13.90145 | 27235 ft | 342 kts | 240° |
| 2026-02-19 12:08 | 42.23605 | 13.84705 | 26876 ft | 331 kts | 239° |
| 2026-02-19 12:08 | 42.22464 | 13.82055 | 26874 ft | 321 kts | 239° |
| 2026-02-19 12:09 | 42.21347 | 13.79462 | 26583 ft | 317 kts | 239° |
| 2026-02-19 12:09 | 42.20238 | 13.76899 | 26155 ft | 315 kts | 239° |
| 2026-02-19 12:09 | 42.19175 | 13.74327 | 25706 ft | 313 kts | 243° |
| 2026-02-19 12:09 | 42.18282 | 13.71654 | 25283 ft | 312 kts | 247° |
| 2026-02-19 12:10 | 42.17507 | 13.68935 | 24817 ft | 311 kts | 247° |
| 2026-02-19 12:10 | 42.16746 | 13.66215 | 24385 ft | 309 kts | 248° |
| 2026-02-19 12:10 | 42.15993 | 13.63512 | 23955 ft | 307 kts | 247° |
| 2026-02-19 12:10 | 42.15242 | 13.60830 | 23505 ft | 305 kts | 248° |
| 2026-02-19 12:11 | 42.14494 | 13.58161 | 23070 ft | 303 kts | 247° |
| 2026-02-19 12:11 | 42.13745 | 13.55500 | 22575 ft | 304 kts | 247° |
| 2026-02-19 12:11 | 42.13005 | 13.52883 | 22104 ft | 302 kts | 247° |
| 2026-02-19 12:11 | 42.12263 | 13.50251 | 21689 ft | 299 kts | 247° |
| 2026-02-19 12:12 | 42.11525 | 13.47640 | 21331 ft | 297 kts | 246° |
| 2026-02-19 12:12 | 42.10057 | 13.42461 | 20450 ft | 295 kts | 246° |
| 2026-02-19 12:12 | 42.09328 | 13.39887 | 20039 ft | 294 kts | 246° |
| 2026-02-19 12:13 | 42.08598 | 13.37320 | 19622 ft | 293 kts | 246° |
| 2026-02-19 12:13 | 42.07871 | 13.34766 | 19235 ft | 292 kts | 246° |
| 2026-02-19 12:13 | 42.07147 | 13.32222 | 18833 ft | 290 kts | 246° |
| 2026-02-19 12:13 | 42.06638 | 13.29598 | 18418 ft | 292 kts | 257° |
| 2026-02-19 12:14 | 42.06460 | 13.26870 | 18026 ft | 294 kts | 262° |
| 2026-02-19 12:14 | 42.06522 | 13.24110 | 17566 ft | 297 kts | 271° |
| 2026-02-19 12:14 | 42.06861 | 13.21365 | 17178 ft | 296 kts | 272° |
| 2026-02-19 12:14 | 42.07242 | 13.18649 | 16784 ft | 294 kts | 273° |
| 2026-02-19 12:15 | 42.07623 | 13.15975 | 16386 ft | 293 kts | 273° |
| 2026-02-19 12:15 | 42.08004 | 13.13291 | 16021 ft | 290 kts | 273° |
| 2026-02-19 12:15 | 42.08378 | 13.10637 | 15624 ft | 284 kts | 273° |
| 2026-02-19 12:15 | 42.08742 | 13.08050 | 15311 ft | 281 kts | 272° |
| 2026-02-19 12:16 | 42.09095 | 13.05456 | 14946 ft | 283 kts | 272° |
| 2026-02-19 12:16 | 42.09813 | 13.00091 | 14214 ft | 298 kts | 273° |
| 2026-02-19 12:16 | 42.10176 | 12.97421 | 13853 ft | 298 kts | 273° |
| 2026-02-19 12:17 | 42.10547 | 12.94677 | 13442 ft | 298 kts | 272° |
| 2026-02-19 12:17 | 42.10915 | 12.91940 | 13026 ft | 296 kts | 272° |
| 2026-02-19 12:17 | 42.11282 | 12.89222 | 12637 ft | 294 kts | 272° |
| 2026-02-19 12:17 | 42.11642 | 12.86524 | 12240 ft | 291 kts | 272° |
| 2026-02-19 12:18 | 42.11999 | 12.83878 | 11926 ft | 284 kts | 272° |
| 2026-02-19 12:18 | 42.12348 | 12.81267 | 11583 ft | 282 kts | 272° |
| 2026-02-19 12:18 | 42.12689 | 12.78697 | 11229 ft | 282 kts | 272° |
| 2026-02-19 12:18 | 42.13032 | 12.76102 | 10870 ft | 281 kts | 273° |
| 2026-02-19 12:19 | 42.13373 | 12.73516 | 10534 ft | 280 kts | 273° |
| 2026-02-19 12:19 | 42.13715 | 12.70943 | 10221 ft | 277 kts | 273° |
| 2026-02-19 12:19 | 42.14048 | 12.68435 | 10097 ft | 268 kts | 273° |
| 2026-02-19 12:19 | 42.14371 | 12.65997 | 9981 ft | 259 kts | 273° |
| 2026-02-19 12:20 | 42.14681 | 12.63645 | 9873 ft | 253 kts | 272° |
| 2026-02-19 12:20 | 42.15279 | 12.59069 | 9395 ft | 249 kts | 272° |
| 2026-02-19 12:20 | 42.15578 | 12.56775 | 9094 ft | 247 kts | 272° |
| 2026-02-19 12:21 | 42.15875 | 12.54504 | 8782 ft | 245 kts | 272° |
| 2026-02-19 12:21 | 42.16167 | 12.52253 | 8494 ft | 243 kts | 272° |
| 2026-02-19 12:21 | 42.16458 | 12.50021 | 8201 ft | 240 kts | 272° |
| 2026-02-19 12:21 | 42.16745 | 12.47814 | 7901 ft | 238 kts | 272° |
| 2026-02-19 12:22 | 42.17031 | 12.45607 | 7622 ft | 241 kts | 272° |
| 2026-02-19 12:22 | 42.17320 | 12.43346 | 7357 ft | 248 kts | 272° |
| 2026-02-19 12:22 | 42.17618 | 12.41034 | 7099 ft | 250 kts | 272° |
| 2026-02-19 12:22 | 42.17911 | 12.38794 | 7069 ft | 239 kts | 273° |
| 2026-02-19 12:23 | 42.18195 | 12.36626 | 6949 ft | 230 kts | 273° |
| 2026-02-19 12:23 | 42.18422 | 12.34554 | 6814 ft | 213 kts | 263° |
| 2026-02-19 12:23 | 42.18134 | 12.32674 | 6569 ft | 201 kts | 247° |
| 2026-02-19 12:23 | 42.17697 | 12.30837 | 6327 ft | 209 kts | 249° |
| 2026-02-19 12:24 | 42.17261 | 12.28941 | 6039 ft | 214 kts | 249° |
| 2026-02-19 12:24 | 42.16374 | 12.25110 | 5461 ft | 212 kts | 249° |
| 2026-02-19 12:24 | 42.15938 | 12.23240 | 5259 ft | 207 kts | 249° |
| 2026-02-19 12:25 | 42.15508 | 12.21406 | 4999 ft | 202 kts | 247° |
| 2026-02-19 12:25 | 42.14802 | 12.19865 | 4682 ft | 191 kts | 221° |
| 2026-02-19 12:25 | 42.13712 | 12.18892 | 4404 ft | 187 kts | 205° |
| 2026-02-19 12:25 | 42.12475 | 12.18416 | 4022 ft | 183 kts | 198° |
| 2026-02-19 12:26 | 42.11252 | 12.18056 | 3749 ft | 181 kts | 198° |
| 2026-02-19 12:26 | 42.10022 | 12.17698 | 3478 ft | 180 kts | 198° |
| 2026-02-19 12:26 | 42.08824 | 12.17345 | 3250 ft | 179 kts | 196° |
| 2026-02-19 12:26 | 42.07568 | 12.17014 | 3024 ft | 192 kts | 188° |
| 2026-02-19 12:27 | 42.06175 | 12.17281 | 2888 ft | 209 kts | 174° |
| 2026-02-19 12:27 | 42.04730 | 12.17758 | 2895 ft | 216 kts | 173° |
| 2026-02-19 12:27 | 42.03285 | 12.18312 | 2837 ft | 221 kts | 171° |
| 2026-02-19 12:27 | 42.01798 | 12.18933 | 3003 ft | 225 kts | 171° |
| 2026-02-19 12:28 | 42.00299 | 12.19569 | 2988 ft | 222 kts | 171° |
| 2026-02-19 12:28 | 41.97528 | 12.20745 | 2758 ft | 193 kts | 172° |
| 2026-02-19 12:28 | 41.96306 | 12.21258 | 2476 ft | 174 kts | 173° |
| 2026-02-19 12:29 | 41.95197 | 12.21718 | 2245 ft | 164 kts | 173° |
| 2026-02-19 12:29 | 41.94106 | 12.22173 | 2034 ft | 164 kts | 172° |
| 2026-02-19 12:29 | 41.93044 | 12.22617 | 1791 ft | 154 kts | 173° |
| 2026-02-19 12:29 | 41.92042 | 12.23038 | 1635 ft | 153 kts | 173° |
| 2026-02-19 12:30 | 41.91041 | 12.23458 | 1421 ft | 151 kts | 173° |
| 2026-02-19 12:30 | 41.90039 | 12.23879 | 1214 ft | 148 kts | 173° |
| 2026-02-19 12:30 | 41.89076 | 12.24281 | 1005 ft | 144 kts | 172° |
| 2026-02-19 12:30 | 41.88132 | 12.24675 | 792 ft | 140 kts | 172° |
| 2026-02-19 12:31 | 41.87221 | 12.25060 | 602 ft | 138 kts | 169° |
| 2026-02-19 12:31 | 41.86295 | 12.25439 | 404 ft | 138 kts | 167° |
| 2026-02-19 12:31 | 41.85379 | 12.25822 | 232 ft | 140 kts | 166° |
| 2026-02-19 12:31 | 41.84458 | 12.26210 | 66 ft | 135 kts | 166° |
| 2026-02-19 12:32 | 41.83621 | 12.26558 | 24 ft | 113 kts | 163° |
| 2026-02-19 12:32 | 41.82780 | 12.26875 | 18 ft | 30 kts | 178° |
| 2026-02-19 12:32 | 41.82627 | 12.26847 | 15 ft | 20 kts | 192° |
| 2026-02-19 12:33 | 41.82494 | 12.26807 | 16 ft | 18 kts | 194° |
| 2026-02-19 12:33 | 41.82373 | 12.26780 | 16 ft | 18 kts | 180° |
| 2026-02-19 12:33 | 41.82247 | 12.26812 | 16 ft | 20 kts | 163° |
| 2026-02-19 12:33 | 41.82100 | 12.26874 | 15 ft | 23 kts | 162° |
| 2026-02-19 12:34 | 41.81949 | 12.26936 | 16 ft | 23 kts | 162° |
| 2026-02-19 12:34 | 41.81797 | 12.26999 | 16 ft | 23 kts | 162° |
| 2026-02-19 12:34 | 41.81647 | 12.27061 | 16 ft | 23 kts | 163° |
| 2026-02-19 12:34 | 41.81497 | 12.27125 | 17 ft | 23 kts | 162° |
| 2026-02-19 12:35 | 41.81345 | 12.27188 | 17 ft | 23 kts | 162° |
| 2026-02-19 12:35 | 41.81194 | 12.27252 | 17 ft | 23 kts | 162° |
| 2026-02-19 12:35 | 41.81043 | 12.27314 | 17 ft | 22 kts | 162° |
| 2026-02-19 12:35 | 41.80928 | 12.27349 | 17 ft | 15 kts | 179° |
| 2026-02-19 12:36 | 41.80826 | 12.27332 | 17 ft | 15 kts | 189° |
| 2026-02-19 12:36 | 41.80660 | 12.27227 | 17 ft | 13 kts | 241° |
| 2026-02-19 12:36 | 41.80625 | 12.27113 | 18 ft | 13 kts | 250° |
| 2026-02-19 12:37 | 41.80594 | 12.26999 | 18 ft | 13 kts | 250° |
| 2026-02-19 12:37 | 41.80561 | 12.26880 | 18 ft | 15 kts | 249° |
| 2026-02-19 12:37 | 41.80521 | 12.26736 | 19 ft | 18 kts | 250° |
| 2026-02-19 12:37 | 41.80476 | 12.26572 | 20 ft | 19 kts | 250° |
| 2026-02-19 12:38 | 41.80431 | 12.26408 | 20 ft | 19 kts | 250° |
| 2026-02-19 12:38 | 41.80385 | 12.26243 | 20 ft | 19 kts | 250° |
| 2026-02-19 12:38 | 41.80341 | 12.26081 | 19 ft | 19 kts | 250° |
| 2026-02-19 12:38 | 41.80295 | 12.25917 | 19 ft | 19 kts | 250° |
| 2026-02-19 12:39 | 41.80250 | 12.25753 | 19 ft | 19 kts | 249° |
| 2026-02-19 12:39 | 41.80205 | 12.25588 | 19 ft | 19 kts | 250° |
| 2026-02-19 12:39 | 41.80160 | 12.25425 | 19 ft | 19 kts | 250° |
| 2026-02-19 12:39 | 41.80127 | 12.25307 | 20 ft | 12 kts | 250° |
| 2026-02-19 12:40 | 41.80098 | 12.25199 | 19 ft | 12 kts | 253° |
| 2026-02-19 12:40 | 41.80111 | 12.24957 | 19 ft | 14 kts | 271° |
| 2026-02-19 12:40 | 41.80097 | 12.24839 | 19 ft | 9 kts | 253° |
| 2026-02-19 12:41 | 41.80066 | 12.24788 | 19 ft | 6 kts | 191° |
| 2026-02-19 12:41 | 41.80026 | 12.24801 | 19 ft | 6 kts | 163° |
| 2026-02-19 12:41 | 41.79985 | 12.24808 | 19 ft | 6 kts | 181° |
| 2026-02-19 12:41 | 41.79945 | 12.24794 | 19 ft | 6 kts | 203° |
| 2026-02-19 12:42 | 41.79907 | 12.24771 | 19 ft | 6 kts | 204° |
| 2026-02-19 12:42 | 41.79875 | 12.24751 | 20 ft | 3 kts | 205° |
| 2026-02-19 12:42 | 41.79870 | 12.24748 | 20 ft | 0 kts | 205° |
| 2026-02-19 12:42 | 41.79867 | 12.24746 | 19 ft | 1 kts | 205° |
| 2026-02-19 12:43 | 41.79866 | 12.24746 | 19 ft | 0 kts | 205° |